Time;durP1;ratioP1;P1;durP2;ratioP2;P2;SDS_P1;SDS_P2;PMS_P1;PMS_P2;Temp;Humidity;BMP_temperature;BMP_pressure;BME280_temperature;BME280_humidity;BME280_pressure;Samples;Min_cycle;Max_cycle;Signal;HPM_P1;HPM_P2
2023/03/31 00:00:48;;;;;;;8.63;5.18;;;7.00;99.90;;;;;;5033451;28;20057;-49
2023/03/31 00:03:20;;;;;;;13.73;5.97;;;7.10;99.90;;;;;;5032508;28;20053;-52
2023/03/31 00:05:52;;;;;;;9.48;5.80;;;7.20;99.90;;;;;;5045331;28;20013;-56
2023/03/31 00:08:18;;;;;;;7.45;5.55;;;7.30;99.90;;;;;;5044399;28;20108;-50
2023/03/31 00:10:46;;;;;;;9.98;5.38;;;7.30;99.90;;;;;;5053770;28;20109;-52
2023/03/31 00:13:11;;;;;;;8.18;5.72;;;7.30;99.90;;;;;;5051422;28;20111;-49
2023/03/31 00:15:38;;;;;;;12.18;6.53;;;7.20;99.90;;;;;;5052465;28;20033;-54
2023/03/31 00:18:04;;;;;;;11.77;6.63;;;7.20;99.90;;;;;;5034522;28;20477;-53
2023/03/31 00:20:32;;;;;;;9.45;6.30;;;7.00;99.90;;;;;;5033616;28;20376;-51
2023/03/31 00:23:00;;;;;;;17.92;6.18;;;6.90;99.90;;;;;;5033117;28;20536;-56
2023/03/31 00:25:26;;;;;;;9.52;6.55;;;6.80;99.90;;;;;;5045609;28;20064;-53
2023/03/31 00:27:52;;;;;;;11.55;6.53;;;6.60;99.90;;;;;;5033273;28;20082;-52
2023/03/31 00:30:18;;;;;;;11.52;7.03;;;6.50;99.90;;;;;;5040997;28;20021;-53
2023/03/31 00:32:44;;;;;;;10.50;6.45;;;6.50;99.90;;;;;;5053223;28;20112;-52
2023/03/31 00:35:10;;;;;;;13.45;7.18;;;6.40;99.90;;;;;;5052029;28;20109;-53
2023/03/31 00:37:35;;;;;;;9.23;6.03;;;6.20;99.90;;;;;;5037316;28;20025;-52
2023/03/31 00:40:08;;;;;;;13.27;6.80;;;6.20;99.90;;;;;;5032984;28;20075;-56
2023/03/31 00:42:41;;;;;;;7.38;6.20;;;6.10;99.90;;;;;;5035445;28;20048;-49
2023/03/31 00:45:13;;;;;;;13.18;6.97;;;6.10;99.90;;;;;;5039934;28;20025;-54
2023/03/31 00:47:42;;;;;;;10.15;6.57;;;6.00;99.90;;;;;;5032972;28;20079;-52
2023/03/31 00:50:20;;;;;;;11.02;7.50;;;5.90;99.90;;;;;;5052681;28;20067;-53
2023/03/31 00:52:50;;;;;;;10.23;6.25;;;5.80;99.90;;;;;;5052653;28;20021;-56
2023/03/31 00:55:21;;;;;;;9.13;7.00;;;5.70;99.90;;;;;;5052775;28;20056;-51
2023/03/31 00:57:47;;;;;;;8.30;5.53;;;5.50;99.90;;;;;;5052632;28;20029;-56
2023/03/31 01:00:15;;;;;;;11.07;6.85;;;5.40;99.90;;;;;;5049107;28;20025;-51
2023/03/31 01:03:02;;;;;;;9.93;6.45;;;5.40;99.90;;;;;;5032667;28;20036;-51
2023/03/31 01:05:56;;;;;;;10.32;6.05;;;5.30;99.90;;;;;;5032628;28;20032;-54
2023/03/31 01:08:25;;;;;;;10.00;6.00;;;5.10;99.90;;;;;;5030963;28;20036;-56
2023/03/31 01:11:12;;;;;;;11.07;6.20;;;5.10;99.90;;;;;;5032320;28;20083;-54
2023/03/31 01:13:40;;;;;;;13.48;5.72;;;5.00;99.90;;;;;;5032434;28;20440;-53
2023/03/31 01:16:06;;;;;;;7.88;6.32;;;4.90;99.90;;;;;;5032194;28;20457;-50
2023/03/31 01:18:33;;;;;;;9.77;6.13;;;4.90;99.90;;;;;;5032333;28;20079;-51
2023/03/31 01:21:32;;;;;;;8.18;6.53;;;4.80;99.90;;;;;;5032019;28;20049;-51
2023/03/31 01:24:46;;;;;;;9.35;6.55;;;4.70;99.90;;;;;;5030777;28;20022;-54
2023/03/31 01:27:36;;;;;;;8.52;6.15;;;4.70;99.90;;;;;;5030940;28;20108;-54
2023/03/31 01:30:23;;;;;;;7.82;5.82;;;4.60;99.90;;;;;;5032163;28;20155;-55
2023/03/31 01:33:10;;;;;;;7.72;6.00;;;4.50;99.90;;;;;;5031981;28;20021;-52
2023/03/31 01:35:54;;;;;;;10.90;5.93;;;4.50;99.90;;;;;;5030815;28;20021;-50
2023/03/31 01:38:23;;;;;;;10.25;6.28;;;4.40;99.90;;;;;;5048573;28;20079;-53
2023/03/31 01:40:53;;;;;;;6.65;5.95;;;4.40;99.90;;;;;;5051084;28;20025;-52
2023/03/31 01:43:46;;;;;;;13.55;6.53;;;4.30;99.90;;;;;;5047347;28;20441;-51
2023/03/31 01:46:36;;;;;;;8.63;6.50;;;4.30;99.90;;;;;;5037325;28;20484;-51
2023/03/31 01:49:18;;;;;;;8.32;6.47;;;4.20;99.90;;;;;;5035828;28;20051;-52
2023/03/31 01:51:43;;;;;;;11.30;7.40;;;4.10;99.90;;;;;;5051948;28;20029;-52
2023/03/31 01:54:20;;;;;;;7.55;6.47;;;4.20;99.90;;;;;;5051451;28;20053;-52
2023/03/31 01:56:50;;;;;;;7.82;7.03;;;4.10;99.90;;;;;;5051715;28;20025;-57
2023/03/31 01:59:18;;;;;;;8.90;6.82;;;4.10;99.90;;;;;;5051711;28;20028;-50
2023/03/31 02:01:58;;;;;;;11.82;7.00;;;4.00;99.90;;;;;;5051399;28;20025;-52
2023/03/31 02:04:41;;;;;;;8.00;6.88;;;4.00;99.90;;;;;;5049206;28;20036;-52
2023/03/31 02:07:55;;;;;;;11.90;6.80;;;3.90;99.90;;;;;;5032221;28;20508;-53
2023/03/31 02:10:24;;;;;;;8.80;6.95;;;3.90;99.90;;;;;;5031121;28;20120;-51
2023/03/31 02:12:52;;;;;;;10.30;7.25;;;3.90;99.90;;;;;;5049315;28;20139;-54
2023/03/31 02:15:25;;;;;;;10.95;7.30;;;3.90;99.90;;;;;;5051311;28;20602;-50
2023/03/31 02:17:55;;;;;;;7.97;7.03;;;3.90;99.90;;;;;;5051277;28;20025;-53
2023/03/31 02:20:22;;;;;;;9.43;7.50;;;3.80;99.90;;;;;;5031687;28;20075;-50
2023/03/31 02:22:53;;;;;;;12.77;7.15;;;3.80;99.90;;;;;;5031452;28;20492;-51
2023/03/31 02:25:23;;;;;;;7.88;7.00;;;3.70;99.90;;;;;;5043560;28;20044;-53
2023/03/31 02:28:02;;;;;;;8.93;8.00;;;3.70;99.90;;;;;;5031184;28;20126;-51
2023/03/31 02:30:37;;;;;;;10.65;7.57;;;3.60;99.90;;;;;;5043210;28;20021;-52
2023/03/31 02:33:04;;;;;;;9.38;7.57;;;3.70;99.90;;;;;;5050717;28;20013;-50
2023/03/31 02:35:29;;;;;;;9.60;7.63;;;3.70;99.90;;;;;;5050499;28;20112;-49
2023/03/31 02:37:57;;;;;;;12.00;7.60;;;3.70;99.90;;;;;;5050413;28;20124;-53
2023/03/31 02:40:26;;;;;;;8.20;6.97;;;3.60;99.90;;;;;;5050388;28;20022;-51
2023/03/31 02:42:52;;;;;;;10.23;6.95;;;3.60;99.90;;;;;;5036076;28;20025;-56
2023/03/31 02:45:42;;;;;;;15.43;8.32;;;3.50;99.90;;;;;;5031021;28;20032;-50
2023/03/31 02:48:16;;;;;;;18.08;8.32;;;3.50;99.90;;;;;;5035294;28;20024;-50
2023/03/31 02:50:53;;;;;;;82.63;9.45;;;3.50;99.90;;;;;;5050266;28;20049;-50
2023/03/31 02:53:22;;;;;;;15.85;8.98;;;3.40;99.90;;;;;;5042009;28;20029;-53
2023/03/31 02:56:15;;;;;;;27.83;8.07;;;3.40;99.90;;;;;;5040683;28;20377;-52
2023/03/31 02:59:03;;;;;;;13.25;8.02;;;3.40;99.90;;;;;;5037453;28;20084;-51
2023/03/31 03:01:55;;;;;;;8.05;6.60;;;3.50;99.90;;;;;;5073459;28;20428;-53
2023/03/31 03:04:59;;;;;;;8.75;6.75;;;3.50;99.90;;;;;;5036430;28;20018;-48
2023/03/31 03:07:45;;;;;;;10.18;7.47;;;3.60;99.90;;;;;;5034795;28;20021;-50
2023/03/31 03:10:23;;;;;;;7.78;6.78;;;3.70;99.90;;;;;;5034808;28;20064;-50
2023/03/31 03:13:24;;;;;;;10.32;7.05;;;3.70;99.90;;;;;;5034118;28;20044;-52
2023/03/31 03:15:54;;;;;;;10.32;7.70;;;3.80;99.90;;;;;;5034644;28;20038;-51
2023/03/31 03:18:20;;;;;;;12.73;8.10;;;3.90;99.90;;;;;;5034632;28;20034;-54
2023/03/31 03:20:49;;;;;;;8.93;7.75;;;3.90;99.90;;;;;;5033142;28;20036;-57
2023/03/31 03:23:15;;;;;;;8.02;7.20;;;3.90;99.90;;;;;;5033477;28;20709;-52
2023/03/31 03:25:41;;;;;;;8.38;7.57;;;3.90;99.90;;;;;;5033447;28;20117;-55
2023/03/31 03:28:07;;;;;;;10.15;7.45;;;4.00;99.90;;;;;;5033093;28;20465;-54
2023/03/31 03:30:33;;;;;;;11.43;6.55;;;4.00;99.90;;;;;;5032072;28;20037;-50
2023/03/31 03:32:58;;;;;;;11.05;7.85;;;4.00;99.90;;;;;;5033032;28;20602;-52
2023/03/31 03:35:24;;;;;;;11.48;8.20;;;4.00;99.90;;;;;;5034130;28;20030;-52
2023/03/31 03:37:50;;;;;;;8.75;7.45;;;4.00;99.90;;;;;;5034190;28;20032;-53
2023/03/31 03:40:16;;;;;;;17.70;7.03;;;4.00;99.90;;;;;;5034381;28;20444;-53
2023/03/31 03:42:42;;;;;;;9.77;7.75;;;3.90;99.90;;;;;;5034126;28;20028;-49
2023/03/31 03:45:08;;;;;;;7.68;6.60;;;3.90;99.90;;;;;;5033937;28;20052;-50
2023/03/31 03:47:34;;;;;;;6.55;5.95;;;3.90;99.90;;;;;;5044660;28;20037;-50
2023/03/31 03:50:01;;;;;;;10.15;6.80;;;3.90;99.90;;;;;;5053819;28;20029;-55
2023/03/31 03:52:26;;;;;;;14.93;7.53;;;3.80;99.90;;;;;;5054016;28;20055;-56
2023/03/31 03:54:52;;;;;;;11.40;6.65;;;3.80;99.90;;;;;;5053749;28;20029;-51
2023/03/31 03:57:18;;;;;;;11.38;7.25;;;3.70;99.90;;;;;;5053831;28;20113;-51
2023/03/31 03:59:43;;;;;;;7.28;6.47;;;3.60;99.90;;;;;;5052379;28;20053;-51
2023/03/31 04:02:09;;;;;;;7.60;6.82;;;3.60;99.90;;;;;;5053585;28;20040;-51
2023/03/31 04:04:35;;;;;;;9.68;6.50;;;3.50;99.90;;;;;;5053305;28;20072;-51
2023/03/31 04:07:00;;;;;;;9.93;6.65;;;3.40;99.90;;;;;;5052309;28;20025;-51
2023/03/31 04:09:26;;;;;;;6.10;5.50;;;3.40;99.90;;;;;;5053653;28;20144;-51
2023/03/31 04:11:52;;;;;;;11.63;6.93;;;3.40;99.90;;;;;;5053268;28;20049;-52
2023/03/31 04:14:17;;;;;;;11.75;7.38;;;3.50;99.90;;;;;;5053680;28;20430;-54
2023/03/31 04:16:45;;;;;;;10.77;7.85;;;3.50;99.90;;;;;;5053452;28;20520;-52
2023/03/31 04:19:12;;;;;;;8.00;7.20;;;3.50;99.90;;;;;;5053350;28;20541;-54
2023/03/31 04:21:44;;;;;;;13.25;6.97;;;3.70;99.90;;;;;;5053470;28;20403;-51
2023/03/31 04:24:14;;;;;;;7.97;7.15;;;3.80;99.90;;;;;;5053101;28;20028;-52
2023/03/31 04:26:43;;;;;;;7.93;7.13;;;3.90;99.90;;;;;;5053441;28;20043;-51
2023/03/31 04:29:19;;;;;;;15.38;7.47;;;3.90;99.90;;;;;;5053312;28;20112;-49
2023/03/31 04:31:45;;;;;;;8.80;7.13;;;4.00;99.90;;;;;;5051770;28;20025;-50
2023/03/31 04:34:13;;;;;;;16.67;7.20;;;4.10;99.90;;;;;;5053237;28;20062;-54
2023/03/31 04:36:47;;;;;;;10.93;7.18;;;4.10;99.90;;;;;;5053047;28;20033;-53
2023/03/31 04:39:25;;;;;;;9.05;7.07;;;4.30;99.90;;;;;;5053049;28;20562;-48
2023/03/31 04:41:52;;;;;;;9.20;6.90;;;4.40;99.90;;;;;;5052754;28;20025;-48
2023/03/31 04:44:17;;;;;;;9.98;6.95;;;4.40;99.90;;;;;;5052924;28;20025;-53
2023/03/31 04:46:43;;;;;;;9.02;7.20;;;4.40;99.90;;;;;;5052927;28;20024;-52
2023/03/31 04:49:09;;;;;;;9.55;7.80;;;4.40;99.90;;;;;;5052856;28;20086;-51
2023/03/31 04:51:34;;;;;;;12.55;7.57;;;4.50;99.90;;;;;;5052881;28;20503;-52
2023/03/31 04:54:00;;;;;;;12.52;7.00;;;4.60;99.90;;;;;;5052497;28;20375;-53
2023/03/31 04:56:26;;;;;;;9.20;7.78;;;4.70;99.90;;;;;;5052684;28;20064;-52
2023/03/31 04:58:52;;;;;;;15.13;10.70;;;4.80;99.90;;;;;;5052324;28;20028;-52
2023/03/31 05:01:17;;;;;;;15.05;8.10;;;4.80;99.90;;;;;;5052616;28;20063;-53
2023/03/31 05:03:46;;;;;;;9.40;7.75;;;4.90;99.90;;;;;;5052668;28;20028;-51
2023/03/31 05:06:14;;;;;;;10.25;8.27;;;4.90;99.90;;;;;;5052487;28;20024;-53
2023/03/31 05:08:39;;;;;;;11.57;7.88;;;5.00;99.90;;;;;;5052426;28;20473;-51
2023/03/31 05:11:05;;;;;;;16.17;7.85;;;5.00;99.90;;;;;;5052094;28;20079;-53
2023/03/31 05:13:31;;;;;;;9.88;6.50;;;5.10;99.90;;;;;;5051989;28;20123;-52
2023/03/31 05:15:57;;;;;;;12.82;7.68;;;5.20;99.90;;;;;;5051539;28;20056;-49
2023/03/31 05:18:23;;;;;;;15.82;7.43;;;5.20;99.90;;;;;;5052273;28;20025;-52
2023/03/31 05:20:49;;;;;;;7.95;6.88;;;5.30;99.90;;;;;;5051953;28;20025;-52
2023/03/31 05:23:20;;;;;;;13.77;6.75;;;5.30;99.90;;;;;;5052173;28;20090;-53
2023/03/31 05:25:46;;;;;;;12.02;8.20;;;5.40;99.90;;;;;;5050620;28;20029;-53
2023/03/31 05:28:12;;;;;;;12.98;8.93;;;5.40;99.90;;;;;;5052111;28;20024;-56
2023/03/31 05:30:37;;;;;;;10.85;7.55;;;5.40;99.90;;;;;;5052138;28;20116;-49
2023/03/31 05:33:03;;;;;;;10.73;8.68;;;5.50;99.90;;;;;;5052063;28;20108;-52
2023/03/31 05:35:29;;;;;;;11.40;7.65;;;5.60;99.90;;;;;;5052069;28;20107;-55
2023/03/31 05:37:54;;;;;;;15.80;9.18;;;5.70;99.90;;;;;;5051482;28;20044;-55
2023/03/31 05:40:20;;;;;;;9.02;7.22;;;5.80;99.90;;;;;;5051862;28;20048;-53
2023/03/31 05:42:46;;;;;;;9.38;7.82;;;5.80;99.90;;;;;;5050531;28;20036;-55
2023/03/31 05:45:11;;;;;;;12.50;8.25;;;5.80;99.90;;;;;;5051842;28;20025;-53
2023/03/31 05:47:37;;;;;;;13.68;7.88;;;5.80;99.90;;;;;;5051879;28;20032;-52
2023/03/31 05:50:06;;;;;;;17.50;8.93;;;5.80;99.90;;;;;;5051938;28;20029;-50
2023/03/31 05:52:32;;;;;;;10.93;7.43;;;5.80;99.90;;;;;;5051712;28;20013;-51
2023/03/31 05:54:57;;;;;;;10.80;7.80;;;5.80;99.90;;;;;;5051657;28;20368;-51
2023/03/31 05:57:23;;;;;;;8.60;7.38;;;5.80;99.90;;;;;;5051641;28;20029;-48
2023/03/31 05:59:49;;;;;;;9.18;7.35;;;5.80;99.90;;;;;;5051546;28;20049;-54
2023/03/31 06:02:14;;;;;;;15.15;8.00;;;5.90;99.90;;;;;;5051526;28;20032;-51
2023/03/31 06:04:41;;;;;;;11.95;7.75;;;6.00;99.90;;;;;;5051466;28;20036;-53
2023/03/31 06:07:07;;;;;;;17.27;8.07;;;6.10;99.90;;;;;;5050035;28;20036;-55
2023/03/31 06:09:32;;;;;;;9.75;8.75;;;6.20;99.90;;;;;;5051458;28;20024;-53
2023/03/31 06:11:58;;;;;;;25.33;12.50;;;6.40;99.90;;;;;;5051167;28;20412;-50
2023/03/31 06:14:24;;;;;;;14.68;9.77;;;6.60;99.90;;;;;;5051541;28;20029;-51
2023/03/31 06:16:50;;;;;;;15.40;10.13;;;6.80;99.90;;;;;;5051302;28;20017;-54
2023/03/31 06:19:15;;;;;;;22.63;10.27;;;7.10;99.90;;;;;;5051595;28;20116;-53
2023/03/31 06:21:41;;;;;;;19.33;9.60;;;7.30;99.90;;;;;;5051197;28;20079;-52
2023/03/31 06:24:08;;;;;;;11.57;8.30;;;7.50;99.90;;;;;;5051250;28;20029;-53
2023/03/31 06:26:34;;;;;;;12.60;8.25;;;7.70;99.90;;;;;;5051451;28;20033;-56
2023/03/31 06:29:00;;;;;;;14.70;8.25;;;7.80;99.90;;;;;;5054909;28;20091;-52
2023/03/31 06:31:25;;;;;;;11.55;7.80;;;7.90;99.90;;;;;;5055439;28;20029;-53
2023/03/31 06:33:52;;;;;;;13.73;8.25;;;8.00;99.90;;;;;;5055232;28;20032;-50
2023/03/31 06:36:20;;;;;;;12.30;8.18;;;8.00;99.90;;;;;;5055299;28;20037;-56
2023/03/31 06:38:46;;;;;;;14.80;8.48;;;8.10;99.90;;;;;;5053884;28;20031;-51
2023/03/31 06:41:13;;;;;;;14.75;8.98;;;8.20;99.90;;;;;;5055461;28;20108;-56
2023/03/31 06:43:39;;;;;;;21.45;10.20;;;8.30;99.90;;;;;;5055299;28;20389;-50
2023/03/31 06:46:05;;;;;;;15.45;8.52;;;8.40;99.90;;;;;;5053555;28;20021;-57
2023/03/31 06:48:31;;;;;;;10.35;7.18;;;8.40;99.90;;;;;;5054970;28;20029;-51
2023/03/31 06:51:02;;;;;;;14.23;8.82;;;8.50;99.90;;;;;;5054230;28;20078;-52
2023/03/31 06:53:28;;;;;;;11.23;7.93;;;8.60;99.90;;;;;;5054884;28;20403;-50
2023/03/31 06:55:54;;;;;;;14.35;7.63;;;8.70;99.90;;;;;;5054961;28;20016;-56
2023/03/31 06:58:20;;;;;;;11.10;7.03;;;8.80;99.90;;;;;;5054699;28;20021;-55
2023/03/31 07:00:46;;;;;;;10.10;7.20;;;8.90;99.90;;;;;;5054361;28;20056;-54
2023/03/31 07:03:11;;;;;;;11.68;7.65;;;8.90;99.90;;;;;;5054066;28;20031;-54
2023/03/31 07:05:37;;;;;;;9.95;7.10;;;9.00;99.90;;;;;;5053869;28;20032;-50
2023/03/31 07:08:03;;;;;;;16.10;7.47;;;9.10;99.90;;;;;;5054139;28;20025;-52
2023/03/31 07:10:31;;;;;;;13.15;7.55;;;9.20;99.90;;;;;;5054537;28;20360;-52
2023/03/31 07:12:57;;;;;;;12.75;7.03;;;9.30;99.90;;;;;;5054871;28;20415;-50
2023/03/31 07:15:24;;;;;;;12.05;5.95;;;9.50;99.90;;;;;;5054282;28;20029;-52
2023/03/31 07:17:49;;;;;;;10.18;6.15;;;9.70;99.90;;;;;;5054042;28;20036;-54
2023/03/31 07:20:17;;;;;;;9.55;6.10;;;9.80;99.90;;;;;;5052840;28;20108;-52
2023/03/31 07:22:47;;;;;;;10.55;8.05;;;9.90;99.90;;;;;;5053308;28;20120;-51
2023/03/31 07:25:16;;;;;;;13.65;7.60;;;9.90;99.90;;;;;;5053142;28;20041;-51
2023/03/31 07:27:42;;;;;;;8.65;6.85;;;10.00;99.90;;;;;;5053331;28;20017;-55
2023/03/31 07:30:14;;;;;;;10.70;6.38;;;10.10;99.90;;;;;;5053366;28;20021;-52
2023/03/31 07:32:40;;;;;;;9.90;6.95;;;10.50;99.90;;;;;;5053266;28;20021;-53
2023/03/31 07:35:10;;;;;;;10.70;6.80;;;10.60;99.90;;;;;;5052147;28;20612;-50
2023/03/31 07:37:42;;;;;;;9.45;6.30;;;10.70;99.90;;;;;;5052368;28;20342;-54
2023/03/31 07:40:15;;;;;;;10.02;6.70;;;10.80;99.90;;;;;;5052833;28;20032;-52
2023/03/31 07:42:41;;;;;;;12.57;6.70;;;11.10;99.90;;;;;;5053863;28;20395;-51
2023/03/31 07:45:08;;;;;;;15.43;5.93;;;11.10;99.90;;;;;;5053528;28;20036;-51
2023/03/31 07:47:34;;;;;;;10.35;5.43;;;11.10;99.90;;;;;;5053001;28;20112;-56
2023/03/31 07:53:22;;;;;;;11.73;5.82;;;11.30;99.90;;;;;;5053575;28;20496;-53
2023/03/31 07:55:47;;;;;;;11.50;6.55;;;11.50;99.90;;;;;;5053330;28;20100;-52
2023/03/31 07:58:13;;;;;;;13.20;7.47;;;11.40;99.90;;;;;;5053673;28;20025;-50
2023/03/31 08:00:39;;;;;;;13.30;7.22;;;11.40;99.90;;;;;;5052985;28;20141;-51
2023/03/31 08:03:05;;;;;;;11.13;6.78;;;11.50;99.90;;;;;;5051527;28;20797;-49
2023/03/31 08:05:31;;;;;;;10.57;7.68;;;11.50;99.90;;;;;;5053173;28;20049;-55
2023/03/31 08:08:01;;;;;;;18.88;10.93;;;11.70;99.90;;;;;;5053264;28;20110;-52
2023/03/31 08:10:27;;;;;;;16.38;9.30;;;11.70;99.90;;;;;;5054306;28;20108;-55
2023/03/31 08:12:53;;;;;;;15.52;10.95;;;12.00;99.90;;;;;;5053045;28;20532;-54
2023/03/31 08:15:19;;;;;;;55.42;42.20;;;12.10;99.90;;;;;;5052907;28;20029;-53
2023/03/31 08:17:45;;;;;;;21.85;14.88;;;12.40;99.90;;;;;;5051987;28;20066;-56
2023/03/31 08:20:11;;;;;;;8.50;6.43;;;12.50;99.90;;;;;;5051643;28;20032;-57
2023/03/31 08:22:38;;;;;;;10.43;5.68;;;12.40;99.90;;;;;;5051682;28;20029;-51
2023/03/31 08:25:05;;;;;;;12.90;6.88;;;12.40;99.90;;;;;;5052984;28;20096;-54
2023/03/31 08:27:36;;;;;;;13.65;6.22;;;12.20;99.90;;;;;;5053337;28;20024;-53
2023/03/31 08:30:03;;;;;;;14.75;8.57;;;12.00;99.90;;;;;;5053013;28;20029;-54
2023/03/31 08:32:31;;;;;;;11.00;6.60;;;11.90;99.90;;;;;;5053186;28;20025;-53
2023/03/31 08:34:56;;;;;;;16.90;6.72;;;11.80;99.90;;;;;;5052993;28;20013;-56
2023/03/31 08:37:23;;;;;;;9.98;6.22;;;11.60;99.90;;;;;;5053058;28;20028;-58
2023/03/31 08:39:48;;;;;;;17.80;6.85;;;11.40;99.90;;;;;;5052824;28;20048;-55
2023/03/31 08:42:37;;;;;;;12.27;6.28;;;11.20;99.90;;;;;;5052870;28;20107;-57
2023/03/31 08:45:11;;;;;;;15.32;7.82;;;11.10;99.90;;;;;;5051953;28;20158;-58
2023/03/31 08:47:37;;;;;;;12.82;7.05;;;10.90;99.90;;;;;;5052159;28;20027;-56
2023/03/31 08:50:13;;;;;;;21.27;7.35;;;10.80;99.90;;;;;;5051803;28;20029;-56
2023/03/31 08:52:45;;;;;;;20.73;9.00;;;10.70;99.90;;;;;;5052149;28;20055;-56
2023/03/31 08:55:16;;;;;;;13.70;7.95;;;10.60;99.90;;;;;;5050763;28;20492;-56
2023/03/31 08:57:56;;;;;;;9.85;7.35;;;10.60;99.90;;;;;;5052003;28;20028;-51
2023/03/31 09:00:21;;;;;;;11.80;7.43;;;10.50;99.90;;;;;;5051481;28;20021;-52
2023/03/31 09:03:01;;;;;;;16.77;8.32;;;10.40;99.90;;;;;;5051627;28;20025;-53
2023/03/31 09:05:29;;;;;;;14.25;6.93;;;10.40;99.90;;;;;;5051941;28;20029;-51
2023/03/31 09:08:19;;;;;;;12.48;6.63;;;10.20;99.90;;;;;;5051099;28;20024;-56
2023/03/31 09:10:58;;;;;;;14.32;10.98;;;10.30;99.90;;;;;;5051658;28;20021;-56
2023/03/31 09:13:39;;;;;;;12.05;7.22;;;10.20;99.90;;;;;;5051594;28;20400;-57
2023/03/31 09:16:21;;;;;;;18.83;7.82;;;10.40;99.90;;;;;;5051579;28;20048;-55
2023/03/31 09:18:47;;;;;;;10.15;7.15;;;10.60;99.90;;;;;;5048508;28;20376;-55
2023/03/31 09:21:26;;;;;;;11.05;7.38;;;10.70;99.90;;;;;;5049391;28;20029;-54
2023/03/31 09:24:15;;;;;;;15.98;8.95;;;10.70;99.90;;;;;;5050765;28;20499;-56
2023/03/31 09:26:45;;;;;;;12.98;7.65;;;10.70;99.90;;;;;;5051920;28;20025;-55
2023/03/31 09:29:46;;;;;;;15.85;7.78;;;10.70;99.90;;;;;;5051140;28;20090;-54
2023/03/31 09:32:20;;;;;;;14.23;7.70;;;10.70;99.90;;;;;;5050869;28;20033;-56
2023/03/31 09:34:51;;;;;;;12.63;8.88;;;10.70;99.90;;;;;;5051468;28;20025;-52
2023/03/31 09:37:17;;;;;;;18.02;7.70;;;10.70;99.90;;;;;;5051000;28;20060;-50
2023/03/31 09:39:43;;;;;;;13.18;7.53;;;10.70;99.90;;;;;;5051238;28;20119;-53
2023/03/31 09:42:13;;;;;;;18.95;8.77;;;10.70;99.90;;;;;;5050208;28;20490;-53
2023/03/31 09:44:40;;;;;;;16.63;9.88;;;10.70;99.90;;;;;;5051510;28;20021;-50
2023/03/31 09:47:15;;;;;;;14.73;10.88;;;10.60;99.90;;;;;;5051701;28;20056;-55
2023/03/31 09:49:45;;;;;;;18.23;10.57;;;10.80;99.90;;;;;;5051835;28;20510;-54
2023/03/31 09:52:39;;;;;;;14.48;8.80;;;10.80;99.90;;;;;;5051625;28;20025;-51
2023/03/31 09:55:35;;;;;;;17.85;7.65;;;10.80;99.90;;;;;;5051210;28;20706;-56
2023/03/31 09:58:05;;;;;;;11.10;7.68;;;10.80;99.90;;;;;;5028248;28;20036;-54
2023/03/31 10:00:33;;;;;;;12.80;8.52;;;11.00;99.90;;;;;;5019724;28;20033;-55
2023/03/31 10:03:07;;;;;;;12.32;7.28;;;11.20;99.90;;;;;;5020040;28;20044;-53
2023/03/31 10:05:38;;;;;;;10.45;7.43;;;11.30;99.90;;;;;;5020694;28;20119;-51
2023/03/31 10:08:18;;;;;;;15.95;8.57;;;11.40;99.90;;;;;;5019835;28;20025;-55
2023/03/31 10:10:53;;;;;;;15.65;7.60;;;11.60;99.90;;;;;;5034168;28;20384;-57
2023/03/31 10:13:28;;;;;;;12.82;7.25;;;12.00;99.90;;;;;;5034730;28;20112;-51
2023/03/31 10:16:08;;;;;;;14.82;7.47;;;12.30;99.90;;;;;;5020334;28;20076;-56
2023/03/31 10:18:38;;;;;;;13.60;7.30;;;12.60;99.90;;;;;;5019911;28;20033;-54
2023/03/31 10:21:14;;;;;;;9.95;5.80;;;12.90;99.90;;;;;;5019944;28;20491;-51
2023/03/31 10:23:45;;;;;;;15.18;7.20;;;13.00;99.90;;;;;;5021361;28;20941;-54
2023/03/31 10:26:15;;;;;;;12.90;6.93;;;12.70;99.90;;;;;;5020145;28;20082;-57
2023/03/31 10:28:41;;;;;;;12.80;8.48;;;12.50;99.90;;;;;;5020793;28;20037;-56
2023/03/31 10:31:07;;;;;;;18.13;7.97;;;12.20;99.90;;;;;;5019814;28;20040;-55
2023/03/31 10:33:41;;;;;;;12.73;8.25;;;12.10;99.90;;;;;;5020622;28;20030;-57
2023/03/31 10:36:13;;;;;;;10.85;8.27;;;11.80;99.90;;;;;;5020029;28;20071;-55
2023/03/31 10:38:43;;;;;;;14.75;8.13;;;11.70;99.90;;;;;;5021419;28;20083;-56
2023/03/31 10:41:11;;;;;;;14.90;7.88;;;11.80;99.90;;;;;;5022710;28;20026;-56
2023/03/31 10:43:46;;;;;;;16.88;10.02;;;11.90;99.90;;;;;;5030108;28;20060;-56
2023/03/31 10:46:12;;;;;;;16.95;10.60;;;12.00;99.90;;;;;;5030991;28;20017;-56
2023/03/31 10:48:41;;;;;;;34.47;20.08;;;12.00;99.90;;;;;;5031288;28;20337;-57
2023/03/31 10:51:15;;;;;;;19.98;9.73;;;12.10;99.90;;;;;;5030576;28;20509;-56
2023/03/31 10:53:42;;;;;;;13.30;7.75;;;12.40;99.90;;;;;;5026956;28;20037;-51
2023/03/31 10:56:30;;;;;;;14.20;7.95;;;12.70;99.90;;;;;;5020561;28;20021;-56
2023/03/31 10:59:17;;;;;;;13.85;7.40;;;13.10;99.90;;;;;;5019500;28;20150;-58
2023/03/31 11:02:02;;;;;;;13.32;7.35;;;13.70;99.90;;;;;;5020204;28;20071;-55
2023/03/31 11:04:36;;;;;;;12.85;8.10;;;14.10;99.90;;;;;;5020338;28;20030;-51
2023/03/31 11:07:20;;;;;;;22.75;10.43;;;14.60;99.90;;;;;;5019796;28;20108;-58
2023/03/31 11:10:20;;;;;;;18.38;8.02;;;14.60;99.90;;;;;;5019595;28;20037;-56
2023/03/31 11:13:02;;;;;;;11.30;7.50;;;15.20;99.90;;;;;;5020189;28;20539;-54
2023/03/31 11:15:50;;;;;;;18.05;7.45;;;15.30;99.90;;;;;;5023209;28;20026;-55
2023/03/31 11:18:38;;;;;;;13.07;6.93;;;15.50;99.90;;;;;;5023329;28;20037;-58
2023/03/31 11:21:12;;;;;;;17.17;7.53;;;15.10;99.90;;;;;;5025370;28;20034;-54
2023/03/31 11:23:42;;;;;;;13.63;6.60;;;15.20;99.90;;;;;;5023068;28;20034;-54
2023/03/31 11:26:34;;;;;;;18.00;7.03;;;15.40;99.90;;;;;;5024158;28;20022;-58
2023/03/31 11:29:15;;;;;;;10.05;6.15;;;14.90;99.90;;;;;;5030620;28;20034;-58
2023/03/31 11:32:18;;;;;;;12.43;7.20;;;14.70;99.90;;;;;;5023077;28;20037;-56
2023/03/31 11:34:53;;;;;;;11.18;5.70;;;14.70;99.90;;;;;;5023868;28;20057;-55
2023/03/31 11:37:20;;;;;;;10.73;8.02;;;14.20;99.90;;;;;;5022901;28;20475;-56
2023/03/31 11:40:16;;;;;;;11.52;6.63;;;14.10;99.90;;;;;;5028031;28;20033;-54
2023/03/31 11:42:50;;;;;;;10.77;6.00;;;13.70;99.90;;;;;;5033044;28;20017;-52
2023/03/31 11:45:27;;;;;;;8.80;5.40;;;13.50;99.90;;;;;;5033730;28;20025;-56
2023/03/31 11:47:59;;;;;;;10.90;6.10;;;13.40;99.90;;;;;;5033925;28;20515;-54
2023/03/31 11:50:29;;;;;;;10.93;6.88;;;13.40;99.90;;;;;;5033916;28;20079;-54
2023/03/31 11:53:21;;;;;;;17.40;9.40;;;13.20;99.90;;;;;;5034673;28;20482;-51
2023/03/31 11:55:50;;;;;;;13.10;6.22;;;13.10;99.90;;;;;;5033120;28;20045;-56
2023/03/31 11:58:35;;;;;;;8.65;5.97;;;13.10;99.90;;;;;;5032967;28;20029;-52
2023/03/31 12:01:19;;;;;;;7.90;5.65;;;13.10;99.90;;;;;;5033329;28;20440;-53
2023/03/31 12:03:48;;;;;;;12.52;5.85;;;13.20;99.90;;;;;;5032230;28;20021;-58
2023/03/31 12:06:21;;;;;;;10.10;5.95;;;13.10;99.90;;;;;;5033695;28;20730;-57
2023/03/31 12:08:56;;;;;;;10.77;5.60;;;13.20;99.90;;;;;;5033794;28;20026;-57
2023/03/31 12:11:37;;;;;;;13.05;5.43;;;13.30;99.90;;;;;;5033799;28;20354;-57
2023/03/31 12:14:16;;;;;;;7.90;5.03;;;13.30;99.90;;;;;;5033592;28;20112;-55
2023/03/31 12:16:45;;;;;;;8.68;4.47;;;13.10;99.90;;;;;;5033063;28;20035;-55
2023/03/31 12:19:26;;;;;;;7.13;4.03;;;12.90;99.90;;;;;;5033032;28;20041;-55
2023/03/31 12:22:18;;;;;;;5.97;3.67;;;12.80;99.90;;;;;;5032808;28;20018;-56
2023/03/31 12:24:45;;;;;;;6.93;4.22;;;12.70;99.90;;;;;;5032294;28;20428;-57
2023/03/31 12:27:26;;;;;;;23.67;8.68;;;12.60;99.90;;;;;;5033533;28;20025;-53
2023/03/31 12:30:24;;;;;;;11.60;5.32;;;12.40;99.90;;;;;;5032560;28;20025;-53
2023/03/31 12:33:16;;;;;;;5.22;4.15;;;12.10;99.90;;;;;;5031475;28;20038;-54
2023/03/31 12:35:52;;;;;;;11.40;4.43;;;11.90;99.90;;;;;;5032467;28;20511;-53
2023/03/31 12:38:33;;;;;;;9.30;5.15;;;11.80;99.90;;;;;;5033062;28;20032;-50
2023/03/31 12:41:06;;;;;;;11.10;5.13;;;11.80;99.90;;;;;;5033138;28;20010;-51
2023/03/31 12:43:59;;;;;;;7.30;4.28;;;11.80;99.90;;;;;;5032224;28;20095;-55
2023/03/31 12:46:49;;;;;;;10.17;6.30;;;11.80;99.90;;;;;;5031175;28;20080;-49
2023/03/31 12:49:27;;;;;;;10.18;5.90;;;11.70;99.90;;;;;;5032534;28;20029;-54
2023/03/31 12:51:55;;;;;;;14.05;6.07;;;11.80;99.90;;;;;;5032381;28;20021;-55
2023/03/31 12:54:47;;;;;;;7.93;5.30;;;11.80;99.90;;;;;;5032094;28;20136;-52
2023/03/31 12:57:19;;;;;;;10.07;5.63;;;11.70;99.90;;;;;;5030290;28;20026;-58
2023/03/31 12:59:45;;;;;;;10.75;5.97;;;11.70;99.90;;;;;;5032086;28;20021;-55
2023/03/31 13:02:14;;;;;;;12.82;5.15;;;11.50;99.90;;;;;;5031311;28;20025;-55
2023/03/31 13:04:40;;;;;;;7.85;5.75;;;11.30;99.90;;;;;;5031927;28;20022;-54
2023/03/31 13:07:37;;;;;;;12.13;6.68;;;11.30;99.90;;;;;;5032189;28;20053;-55
2023/03/31 13:10:24;;;;;;;14.77;6.05;;;11.20;99.90;;;;;;5031505;28;20029;-54
2023/03/31 13:13:14;;;;;;;7.88;4.28;;;10.90;99.90;;;;;;5031622;28;20129;-52
2023/03/31 13:15:54;;;;;;;7.30;4.40;;;10.80;99.90;;;;;;5032095;28;20120;-52